sensor_id;sensor_type;location;lat;lon;timestamp;temperature;humidity
45233;DHT22;30969;51.052;17.056;2023-09-19T00:02:27;23.60;59.70
45233;DHT22;30969;51.052;17.056;2023-09-19T00:07:31;23.50;59.80
45233;DHT22;30969;51.052;17.056;2023-09-19T00:12:36;23.40;60.00
45233;DHT22;30969;51.052;17.056;2023-09-19T00:17:39;23.40;60.50
45233;DHT22;30969;51.052;17.056;2023-09-19T00:22:45;23.30;60.90
45233;DHT22;30969;51.052;17.056;2023-09-19T00:27:50;23.20;60.70
45233;DHT22;30969;51.052;17.056;2023-09-19T00:32:53;23.10;61.80
45233;DHT22;30969;51.052;17.056;2023-09-19T00:37:57;23.00;62.20
45233;DHT22;30969;51.052;17.056;2023-09-19T00:43:02;22.90;62.70
45233;DHT22;30969;51.052;17.056;2023-09-19T00:48:06;22.80;62.90
45233;DHT22;30969;51.052;17.056;2023-09-19T00:53:12;22.70;63.20
45233;DHT22;30969;51.052;17.056;2023-09-19T00:58:18;22.60;63.20
45233;DHT22;30969;51.052;17.056;2023-09-19T01:03:21;22.60;63.50
45233;DHT22;30969;51.052;17.056;2023-09-19T01:08:25;22.50;64.00
45233;DHT22;30969;51.052;17.056;2023-09-19T01:13:34;22.50;64.00
45233;DHT22;30969;51.052;17.056;2023-09-19T01:18:47;22.40;64.00
45233;DHT22;30969;51.052;17.056;2023-09-19T01:29:21;22.40;64.00
45233;DHT22;30969;51.052;17.056;2023-09-19T01:34:44;22.40;64.40
45233;DHT22;30969;51.052;17.056;2023-09-19T01:39:57;22.30;65.20
45233;DHT22;30969;51.052;17.056;2023-09-19T01:45:11;22.30;66.40
45233;DHT22;30969;51.052;17.056;2023-09-19T01:50:17;22.20;67.10
45233;DHT22;30969;51.052;17.056;2023-09-19T01:55:23;22.10;67.50
45233;DHT22;30969;51.052;17.056;2023-09-19T02:00:29;22.00;67.60
45233;DHT22;30969;51.052;17.056;2023-09-19T02:05:35;21.90;67.50
45233;DHT22;30969;51.052;17.056;2023-09-19T02:10:38;21.90;67.90
45233;DHT22;30969;51.052;17.056;2023-09-19T02:15:42;21.90;67.70
45233;DHT22;30969;51.052;17.056;2023-09-19T02:20:47;21.80;68.10
45233;DHT22;30969;51.052;17.056;2023-09-19T02:25:54;21.80;67.80
45233;DHT22;30969;51.052;17.056;2023-09-19T02:30:59;21.80;67.60
45233;DHT22;30969;51.052;17.056;2023-09-19T02:36:04;21.80;67.20
45233;DHT22;30969;51.052;17.056;2023-09-19T02:41:08;21.80;67.00
45233;DHT22;30969;51.052;17.056;2023-09-19T02:46:11;21.90;66.70
45233;DHT22;30969;51.052;17.056;2023-09-19T02:51:16;21.90;66.10
45233;DHT22;30969;51.052;17.056;2023-09-19T02:56:19;22.00;65.70
45233;DHT22;30969;51.052;17.056;2023-09-19T03:01:23;22.00;65.40
45233;DHT22;30969;51.052;17.056;2023-09-19T03:06:28;22.10;65.10
45233;DHT22;30969;51.052;17.056;2023-09-19T03:11:33;22.10;65.00
45233;DHT22;30969;51.052;17.056;2023-09-19T03:16:36;22.10;65.00
45233;DHT22;30969;51.052;17.056;2023-09-19T03:21:42;22.10;65.00
45233;DHT22;30969;51.052;17.056;2023-09-19T03:26:45;22.10;64.80
45233;DHT22;30969;51.052;17.056;2023-09-19T03:31:49;22.20;64.70
45233;DHT22;30969;51.052;17.056;2023-09-19T03:36:54;22.20;64.70
45233;DHT22;30969;51.052;17.056;2023-09-19T03:41:57;22.20;64.80
45233;DHT22;30969;51.052;17.056;2023-09-19T03:47:01;22.10;64.70
45233;DHT22;30969;51.052;17.056;2023-09-19T03:52:07;22.10;64.60
45233;DHT22;30969;51.052;17.056;2023-09-19T03:57:11;22.10;64.60
45233;DHT22;30969;51.052;17.056;2023-09-19T04:02:17;22.00;64.60
45233;DHT22;30969;51.052;17.056;2023-09-19T04:07:27;22.10;64.90
45233;DHT22;30969;51.052;17.056;2023-09-19T04:12:52;22.00;64.90
45233;DHT22;30969;51.052;17.056;2023-09-19T04:17:56;22.00;64.80
45233;DHT22;30969;51.052;17.056;2023-09-19T04:23:01;22.00;64.70
45233;DHT22;30969;51.052;17.056;2023-09-19T04:28:05;22.00;64.60
45233;DHT22;30969;51.052;17.056;2023-09-19T04:33:08;22.00;64.70
45233;DHT22;30969;51.052;17.056;2023-09-19T04:38:13;22.00;64.60
45233;DHT22;30969;51.052;17.056;2023-09-19T04:43:17;21.90;64.70
45233;DHT22;30969;51.052;17.056;2023-09-19T04:48:20;21.90;64.80
45233;DHT22;30969;51.052;17.056;2023-09-19T04:53:25;21.90;64.70
45233;DHT22;30969;51.052;17.056;2023-09-19T04:58:30;21.90;64.90
45233;DHT22;30969;51.052;17.056;2023-09-19T05:03:33;21.80;64.80
45233;DHT22;30969;51.052;17.056;2023-09-19T05:08:38;21.80;64.90
45233;DHT22;30969;51.052;17.056;2023-09-19T05:13:41;21.80;64.90
45233;DHT22;30969;51.052;17.056;2023-09-19T05:18:45;21.70;64.90
45233;DHT22;30969;51.052;17.056;2023-09-19T05:23:50;21.70;64.90
45233;DHT22;30969;51.052;17.056;2023-09-19T05:28:54;21.70;65.00
45233;DHT22;30969;51.052;17.056;2023-09-19T05:33:58;21.60;65.00
45233;DHT22;30969;51.052;17.056;2023-09-19T05:39:04;21.50;65.20
45233;DHT22;30969;51.052;17.056;2023-09-19T05:44:11;21.50;65.30
45233;DHT22;30969;51.052;17.056;2023-09-19T05:49:14;21.50;65.50
45233;DHT22;30969;51.052;17.056;2023-09-19T05:54:20;21.40;65.70
45233;DHT22;30969;51.052;17.056;2023-09-19T05:59:24;21.50;66.00
45233;DHT22;30969;51.052;17.056;2023-09-19T06:04:28;21.50;66.20
45233;DHT22;30969;51.052;17.056;2023-09-19T06:09:34;21.40;66.40
45233;DHT22;30969;51.052;17.056;2023-09-19T06:14:37;21.40;67.30
45233;DHT22;30969;51.052;17.056;2023-09-19T06:19:42;21.40;67.20
45233;DHT22;30969;51.052;17.056;2023-09-19T06:24:51;21.50;67.10
45233;DHT22;30969;51.052;17.056;2023-09-19T06:29:55;21.50;67.70
45233;DHT22;30969;51.052;17.056;2023-09-19T06:34:58;21.50;68.10
45233;DHT22;30969;51.052;17.056;2023-09-19T06:40:03;21.50;68.10
45233;DHT22;30969;51.052;17.056;2023-09-19T06:45:08;21.50;68.00
45233;DHT22;30969;51.052;17.056;2023-09-19T06:50:13;21.50;68.00
45233;DHT22;30969;51.052;17.056;2023-09-19T06:55:18;21.60;68.50
45233;DHT22;30969;51.052;17.056;2023-09-19T07:00:22;21.60;68.80
45233;DHT22;30969;51.052;17.056;2023-09-19T07:05:27;21.60;68.70
45233;DHT22;30969;51.052;17.056;2023-09-19T07:10:32;21.60;68.80
45233;DHT22;30969;51.052;17.056;2023-09-19T07:15:36;21.50;68.70
45233;DHT22;30969;51.052;17.056;2023-09-19T07:20:42;21.60;68.70
45233;DHT22;30969;51.052;17.056;2023-09-19T07:25:56;21.60;68.60
45233;DHT22;30969;51.052;17.056;2023-09-19T07:31:01;21.60;68.40
45233;DHT22;30969;51.052;17.056;2023-09-19T07:36:05;21.60;68.20
45233;DHT22;30969;51.052;17.056;2023-09-19T07:41:09;21.90;67.90
45233;DHT22;30969;51.052;17.056;2023-09-19T07:46:13;21.70;67.50
45233;DHT22;30969;51.052;17.056;2023-09-19T07:51:16;21.70;67.40
45233;DHT22;30969;51.052;17.056;2023-09-19T07:56:21;21.80;67.40
45233;DHT22;30969;51.052;17.056;2023-09-19T08:01:25;21.80;67.30
45233;DHT22;30969;51.052;17.056;2023-09-19T08:06:29;21.80;67.20
45233;DHT22;30969;51.052;17.056;2023-09-19T08:11:34;21.80;66.70
45233;DHT22;30969;51.052;17.056;2023-09-19T08:16:38;21.90;66.20
45233;DHT22;30969;51.052;17.056;2023-09-19T08:21:41;21.90;65.90
45233;DHT22;30969;51.052;17.056;2023-09-19T08:26:49;22.00;66.00
45233;DHT22;30969;51.052;17.056;2023-09-19T08:31:54;21.90;65.80
45233;DHT22;30969;51.052;17.056;2023-09-19T08:36:58;22.00;65.40
45233;DHT22;30969;51.052;17.056;2023-09-19T08:42:03;22.00;65.30
45233;DHT22;30969;51.052;17.056;2023-09-19T08:47:08;22.00;65.70
45233;DHT22;30969;51.052;17.056;2023-09-19T08:52:16;22.00;65.40
45233;DHT22;30969;51.052;17.056;2023-09-19T08:57:24;22.00;65.30
45233;DHT22;30969;51.052;17.056;2023-09-19T09:02:29;22.00;64.80
45233;DHT22;30969;51.052;17.056;2023-09-19T09:07:33;22.00;64.70
45233;DHT22;30969;51.052;17.056;2023-09-19T09:12:38;22.00;64.60
45233;DHT22;30969;51.052;17.056;2023-09-19T09:17:43;22.00;64.80
45233;DHT22;30969;51.052;17.056;2023-09-19T09:22:52;22.00;64.80
45233;DHT22;30969;51.052;17.056;2023-09-19T09:28:01;22.00;64.60
45233;DHT22;30969;51.052;17.056;2023-09-19T09:33:08;22.00;64.50
45233;DHT22;30969;51.052;17.056;2023-09-19T09:38:14;22.00;64.40
45233;DHT22;30969;51.052;17.056;2023-09-19T09:43:31;22.00;64.40
45233;DHT22;30969;51.052;17.056;2023-09-19T09:48:38;22.00;64.50
45233;DHT22;30969;51.052;17.056;2023-09-19T09:53:42;22.10;64.50
45233;DHT22;30969;51.052;17.056;2023-09-19T09:58:50;22.10;64.30
45233;DHT22;30969;51.052;17.056;2023-09-19T10:03:57;22.20;64.00
45233;DHT22;30969;51.052;17.056;2023-09-19T10:09:03;22.20;64.60
45233;DHT22;30969;51.052;17.056;2023-09-19T10:14:16;22.20;63.30
45233;DHT22;30969;51.052;17.056;2023-09-19T10:19:21;22.30;63.10
45233;DHT22;30969;51.052;17.056;2023-09-19T10:24:27;22.30;62.60
45233;DHT22;30969;51.052;17.056;2023-09-19T10:29:35;22.30;62.40
45233;DHT22;30969;51.052;17.056;2023-09-19T10:34:40;22.30;62.10
45233;DHT22;30969;51.052;17.056;2023-09-19T10:39:45;22.40;62.10
45233;DHT22;30969;51.052;17.056;2023-09-19T10:44:51;22.40;62.20
45233;DHT22;30969;51.052;17.056;2023-09-19T10:49:55;22.40;62.00
45233;DHT22;30969;51.052;17.056;2023-09-19T10:55:00;22.40;60.30
45233;DHT22;30969;51.052;17.056;2023-09-19T11:00:07;22.40;59.80
45233;DHT22;30969;51.052;17.056;2023-09-19T11:05:24;22.40;58.70
45233;DHT22;30969;51.052;17.056;2023-09-19T11:10:43;22.50;58.00
45233;DHT22;30969;51.052;17.056;2023-09-19T11:16:04;22.50;57.50
45233;DHT22;30969;51.052;17.056;2023-09-19T11:26:40;22.70;56.90
45233;DHT22;30969;51.052;17.056;2023-09-19T11:31:47;22.70;57.20
45233;DHT22;30969;51.052;17.056;2023-09-19T11:36:52;22.80;58.00
45233;DHT22;30969;51.052;17.056;2023-09-19T11:41:56;22.90;57.00
45233;DHT22;30969;51.052;17.056;2023-09-19T11:47:02;23.00;54.60
45233;DHT22;30969;51.052;17.056;2023-09-19T11:52:06;23.10;53.90
45233;DHT22;30969;51.052;17.056;2023-09-19T11:57:10;23.20;52.80
45233;DHT22;30969;51.052;17.056;2023-09-19T12:02:17;23.30;52.20
45233;DHT22;30969;51.052;17.056;2023-09-19T12:07:23;23.40;51.60
45233;DHT22;30969;51.052;17.056;2023-09-19T12:12:27;23.30;51.50
45233;DHT22;30969;51.052;17.056;2023-09-19T12:17:36;23.40;51.60
45233;DHT22;30969;51.052;17.056;2023-09-19T12:22:41;23.50;50.90
45233;DHT22;30969;51.052;17.056;2023-09-19T12:27:46;23.50;51.20
45233;DHT22;30969;51.052;17.056;2023-09-19T12:32:52;23.60;50.50
45233;DHT22;30969;51.052;17.056;2023-09-19T12:37:56;23.80;50.10
45233;DHT22;30969;51.052;17.056;2023-09-19T12:43:00;23.90;50.40
45233;DHT22;30969;51.052;17.056;2023-09-19T12:48:20;24.10;49.30
45233;DHT22;30969;51.052;17.056;2023-09-19T12:53:26;24.20;49.50
45233;DHT22;30969;51.052;17.056;2023-09-19T12:58:31;24.40;48.80
45233;DHT22;30969;51.052;17.056;2023-09-19T13:03:38;24.60;47.80
45233;DHT22;30969;51.052;17.056;2023-09-19T13:08:43;24.80;47.90
45233;DHT22;30969;51.052;17.056;2023-09-19T13:19:34;25.10;47.00
45233;DHT22;30969;51.052;17.056;2023-09-19T13:24:37;25.30;46.40
45233;DHT22;30969;51.052;17.056;2023-09-19T13:29:44;25.50;46.00
45233;DHT22;30969;51.052;17.056;2023-09-19T13:34:49;25.70;45.90
45233;DHT22;30969;51.052;17.056;2023-09-19T13:39:53;25.70;45.30
45233;DHT22;30969;51.052;17.056;2023-09-19T13:44:56;25.80;44.80
45233;DHT22;30969;51.052;17.056;2023-09-19T13:50:01;25.90;44.00
45233;DHT22;30969;51.052;17.056;2023-09-19T13:55:07;26.00;43.90
45233;DHT22;30969;51.052;17.056;2023-09-19T14:00:11;26.10;43.20
45233;DHT22;30969;51.052;17.056;2023-09-19T14:05:19;26.20;43.60
45233;DHT22;30969;51.052;17.056;2023-09-19T14:10:23;26.30;45.30
45233;DHT22;30969;51.052;17.056;2023-09-19T14:15:27;26.30;44.20
45233;DHT22;30969;51.052;17.056;2023-09-19T14:20:37;26.40;43.10
45233;DHT22;30969;51.052;17.056;2023-09-19T14:25:41;26.50;42.30
45233;DHT22;30969;51.052;17.056;2023-09-19T14:30:44;26.60;43.00
45233;DHT22;30969;51.052;17.056;2023-09-19T14:35:49;26.70;42.80
45233;DHT22;30969;51.052;17.056;2023-09-19T14:40:58;26.70;42.70
45233;DHT22;30969;51.052;17.056;2023-09-19T14:46:02;26.70;43.50
45233;DHT22;30969;51.052;17.056;2023-09-19T14:51:07;26.70;41.70
45233;DHT22;30969;51.052;17.056;2023-09-19T14:56:12;26.70;41.60
45233;DHT22;30969;51.052;17.056;2023-09-19T15:01:20;26.60;41.40
45233;DHT22;30969;51.052;17.056;2023-09-19T15:06:26;26.60;41.60
45233;DHT22;30969;51.052;17.056;2023-09-19T15:11:29;26.40;42.00
45233;DHT22;30969;51.052;17.056;2023-09-19T15:16:32;26.30;41.40
45233;DHT22;30969;51.052;17.056;2023-09-19T15:21:38;26.30;41.60
45233;DHT22;30969;51.052;17.056;2023-09-19T15:26:42;26.20;41.30
45233;DHT22;30969;51.052;17.056;2023-09-19T15:31:46;26.00;41.40
